Atomic City, Idaho
Current Conditions -  °F | °C
As of 7:53 PM on Tuesday 25 Nov 2014 (Local Time) from KIDA Reporting Station
Scattered Clouds Scattered Clouds  
Wind Chill: 33°   Ceiling: Unl
Heat Index: 42°   Visibility: 10mi
Dew Point: 38°   Wind: 20mph
Humidity: 85%   Direction: 210°SSW
Pressure: 30.09"   Gusts: NA
Location:  43.44°N, 112.81°W
Report Text: KIDA 260253Z AUTO 21017KT 10SM SCT090 06/03 A3009 RMK AO2 SLP196 T00560033 53004
Loading
Personal Weather Stations






























Interactive Weather Map New forecast layout! Learn more

10-Day Weather Forecast

Advertisements
Track Severe Weather on mobile